sensor_id;sensor_type;location;lat;lon;timestamp;P1;durP1;ratioP1;P2;durP2;ratioP2
83682;SDS011;73663;51.298;5.802;2023-12-07T00:01:39;34.15;;;15.10;;
83682;SDS011;73663;51.298;5.802;2023-12-07T00:06:46;32.92;;;14.30;;
83682;SDS011;73663;51.298;5.802;2023-12-07T00:11:47;35.47;;;15.23;;
83682;SDS011;73663;51.298;5.802;2023-12-07T00:16:47;30.30;;;12.88;;
83682;SDS011;73663;51.298;5.802;2023-12-07T00:21:49;30.55;;;14.85;;
83682;SDS011;73663;51.298;5.802;2023-12-07T00:26:49;28.77;;;14.30;;
83682;SDS011;73663;51.298;5.802;2023-12-07T00:31:50;30.20;;;13.98;;
83682;SDS011;73663;51.298;5.802;2023-12-07T00:36:51;30.38;;;13.68;;
83682;SDS011;73663;51.298;5.802;2023-12-07T00:41:52;111.82;;;17.30;;
83682;SDS011;73663;51.298;5.802;2023-12-07T00:46:52;91.63;;;16.38;;
83682;SDS011;73663;51.298;5.802;2023-12-07T00:51:53;43.03;;;13.18;;
83682;SDS011;73663;51.298;5.802;2023-12-07T00:56:54;29.05;;;13.15;;
83682;SDS011;73663;51.298;5.802;2023-12-07T01:01:54;31.52;;;14.10;;
83682;SDS011;73663;51.298;5.802;2023-12-07T01:06:55;28.80;;;14.25;;
83682;SDS011;73663;51.298;5.802;2023-12-07T01:11:55;60.97;;;15.00;;
83682;SDS011;73663;51.298;5.802;2023-12-07T01:17:03;42.40;;;15.15;;
83682;SDS011;73663;51.298;5.802;2023-12-07T01:22:04;39.08;;;16.33;;
83682;SDS011;73663;51.298;5.802;2023-12-07T01:27:04;45.38;;;16.45;;
83682;SDS011;73663;51.298;5.802;2023-12-07T01:32:05;46.72;;;17.50;;
83682;SDS011;73663;51.298;5.802;2023-12-07T01:37:06;45.55;;;18.42;;
83682;SDS011;73663;51.298;5.802;2023-12-07T01:42:07;42.85;;;16.50;;
83682;SDS011;73663;51.298;5.802;2023-12-07T01:47:09;69.03;;;19.73;;
83682;SDS011;73663;51.298;5.802;2023-12-07T01:52:10;93.90;;;22.27;;
83682;SDS011;73663;51.298;5.802;2023-12-07T01:57:11;150.90;;;23.60;;
83682;SDS011;73663;51.298;5.802;2023-12-07T02:02:12;88.88;;;22.52;;
83682;SDS011;73663;51.298;5.802;2023-12-07T02:07:13;115.05;;;22.42;;
83682;SDS011;73663;51.298;5.802;2023-12-07T02:12:13;193.55;;;27.23;;
83682;SDS011;73663;51.298;5.802;2023-12-07T02:17:15;240.63;;;29.95;;
83682;SDS011;73663;51.298;5.802;2023-12-07T02:22:25;93.43;;;18.83;;
83682;SDS011;73663;51.298;5.802;2023-12-07T02:27:37;154.73;;;22.55;;
83682;SDS011;73663;51.298;5.802;2023-12-07T02:32:43;119.68;;;19.33;;
83682;SDS011;73663;51.298;5.802;2023-12-07T02:37:46;110.32;;;20.33;;
83682;SDS011;73663;51.298;5.802;2023-12-07T02:42:48;161.13;;;23.73;;
83682;SDS011;73663;51.298;5.802;2023-12-07T02:47:49;187.82;;;24.17;;
83682;SDS011;73663;51.298;5.802;2023-12-07T02:52:50;130.90;;;18.83;;
83682;SDS011;73663;51.298;5.802;2023-12-07T02:57:51;227.55;;;26.90;;
83682;SDS011;73663;51.298;5.802;2023-12-07T03:02:51;80.07;;;14.00;;
83682;SDS011;73663;51.298;5.802;2023-12-07T03:07:52;156.05;;;22.20;;
83682;SDS011;73663;51.298;5.802;2023-12-07T03:12:52;176.73;;;23.25;;
83682;SDS011;73663;51.298;5.802;2023-12-07T03:17:53;168.20;;;22.25;;
83682;SDS011;73663;51.298;5.802;2023-12-07T03:22:53;122.78;;;16.73;;
83682;SDS011;73663;51.298;5.802;2023-12-07T03:27:54;175.50;;;22.25;;
83682;SDS011;73663;51.298;5.802;2023-12-07T03:32:55;163.80;;;21.52;;
83682;SDS011;73663;51.298;5.802;2023-12-07T03:37:55;127.05;;;19.08;;
83682;SDS011;73663;51.298;5.802;2023-12-07T03:42:56;190.30;;;25.20;;
83682;SDS011;73663;51.298;5.802;2023-12-07T03:47:56;167.95;;;24.08;;
83682;SDS011;73663;51.298;5.802;2023-12-07T03:52:57;116.90;;;17.00;;
83682;SDS011;73663;51.298;5.802;2023-12-07T03:57:57;167.82;;;18.50;;
83682;SDS011;73663;51.298;5.802;2023-12-07T04:02:58;125.43;;;16.00;;
83682;SDS011;73663;51.298;5.802;2023-12-07T04:07:59;111.38;;;14.32;;
83682;SDS011;73663;51.298;5.802;2023-12-07T04:12:59;180.48;;;19.35;;
83682;SDS011;73663;51.298;5.802;2023-12-07T04:18:00;81.32;;;12.00;;
83682;SDS011;73663;51.298;5.802;2023-12-07T04:23:00;99.90;;;14.52;;
83682;SDS011;73663;51.298;5.802;2023-12-07T04:28:01;158.00;;;19.30;;
83682;SDS011;73663;51.298;5.802;2023-12-07T04:33:02;140.57;;;16.00;;
83682;SDS011;73663;51.298;5.802;2023-12-07T04:38:02;129.07;;;15.40;;
83682;SDS011;73663;51.298;5.802;2023-12-07T04:43:03;114.10;;;12.07;;
83682;SDS011;73663;51.298;5.802;2023-12-07T04:48:03;140.35;;;15.38;;
83682;SDS011;73663;51.298;5.802;2023-12-07T04:53:04;144.48;;;17.05;;
83682;SDS011;73663;51.298;5.802;2023-12-07T04:58:05;95.95;;;13.32;;
83682;SDS011;73663;51.298;5.802;2023-12-07T05:03:05;92.68;;;13.02;;
83682;SDS011;73663;51.298;5.802;2023-12-07T05:08:06;119.78;;;14.68;;
83682;SDS011;73663;51.298;5.802;2023-12-07T05:13:07;192.13;;;18.58;;
83682;SDS011;73663;51.298;5.802;2023-12-07T05:18:07;172.90;;;18.92;;
83682;SDS011;73663;51.298;5.802;2023-12-07T05:23:08;129.82;;;16.48;;
83682;SDS011;73663;51.298;5.802;2023-12-07T05:28:08;98.75;;;11.65;;
83682;SDS011;73663;51.298;5.802;2023-12-07T05:33:09;123.18;;;15.07;;
83682;SDS011;73663;51.298;5.802;2023-12-07T05:38:09;169.85;;;17.42;;
83682;SDS011;73663;51.298;5.802;2023-12-07T05:43:10;115.07;;;14.40;;
83682;SDS011;73663;51.298;5.802;2023-12-07T05:48:10;103.35;;;12.95;;
83682;SDS011;73663;51.298;5.802;2023-12-07T05:53:11;87.32;;;12.50;;
83682;SDS011;73663;51.298;5.802;2023-12-07T05:58:12;119.25;;;15.32;;
83682;SDS011;73663;51.298;5.802;2023-12-07T06:03:13;194.68;;;22.67;;
83682;SDS011;73663;51.298;5.802;2023-12-07T06:08:21;90.72;;;14.32;;
83682;SDS011;73663;51.298;5.802;2023-12-07T06:13:22;119.85;;;17.45;;
83682;SDS011;73663;51.298;5.802;2023-12-07T06:18:23;151.77;;;19.92;;
83682;SDS011;73663;51.298;5.802;2023-12-07T06:23:23;177.13;;;22.38;;
83682;SDS011;73663;51.298;5.802;2023-12-07T06:28:24;134.35;;;21.67;;
83682;SDS011;73663;51.298;5.802;2023-12-07T06:33:25;128.98;;;21.65;;
83682;SDS011;73663;51.298;5.802;2023-12-07T06:38:25;104.97;;;22.50;;
83682;SDS011;73663;51.298;5.802;2023-12-07T06:43:26;127.15;;;31.05;;
83682;SDS011;73663;51.298;5.802;2023-12-07T06:48:26;98.93;;;22.05;;
83682;SDS011;73663;51.298;5.802;2023-12-07T06:53:27;108.05;;;18.42;;
83682;SDS011;73663;51.298;5.802;2023-12-07T06:58:34;103.68;;;21.92;;
83682;SDS011;73663;51.298;5.802;2023-12-07T07:03:35;98.20;;;29.73;;
83682;SDS011;73663;51.298;5.802;2023-12-07T07:08:35;71.07;;;26.42;;
83682;SDS011;73663;51.298;5.802;2023-12-07T07:13:36;55.13;;;17.00;;
83682;SDS011;73663;51.298;5.802;2023-12-07T07:18:44;65.93;;;17.95;;
83682;SDS011;73663;51.298;5.802;2023-12-07T07:23:45;56.35;;;15.90;;
83682;SDS011;73663;51.298;5.802;2023-12-07T07:28:45;56.47;;;19.27;;
83682;SDS011;73663;51.298;5.802;2023-12-07T07:33:46;42.15;;;12.55;;
83682;SDS011;73663;51.298;5.802;2023-12-07T07:38:47;40.33;;;12.23;;
83682;SDS011;73663;51.298;5.802;2023-12-07T07:43:48;27.92;;;14.25;;
83682;SDS011;73663;51.298;5.802;2023-12-07T07:48:48;46.65;;;19.35;;
83682;SDS011;73663;51.298;5.802;2023-12-07T07:53:49;37.28;;;15.10;;
83682;SDS011;73663;51.298;5.802;2023-12-07T07:58:49;31.13;;;10.73;;
83682;SDS011;73663;51.298;5.802;2023-12-07T08:03:50;27.42;;;10.18;;
83682;SDS011;73663;51.298;5.802;2023-12-07T08:08:50;31.67;;;12.13;;
83682;SDS011;73663;51.298;5.802;2023-12-07T08:13:51;43.42;;;18.67;;
83682;SDS011;73663;51.298;5.802;2023-12-07T08:18:51;39.55;;;13.60;;
83682;SDS011;73663;51.298;5.802;2023-12-07T08:23:52;31.23;;;11.52;;
83682;SDS011;73663;51.298;5.802;2023-12-07T08:28:53;27.10;;;10.88;;
83682;SDS011;73663;51.298;5.802;2023-12-07T08:33:53;27.65;;;10.13;;
83682;SDS011;73663;51.298;5.802;2023-12-07T08:38:55;41.83;;;17.65;;
83682;SDS011;73663;51.298;5.802;2023-12-07T08:44:02;31.15;;;13.07;;
83682;SDS011;73663;51.298;5.802;2023-12-07T08:49:04;34.20;;;12.00;;
83682;SDS011;73663;51.298;5.802;2023-12-07T08:54:05;23.77;;;9.77;;
83682;SDS011;73663;51.298;5.802;2023-12-07T08:59:05;29.75;;;10.20;;
83682;SDS011;73663;51.298;5.802;2023-12-07T09:04:37;31.83;;;10.70;;
83682;SDS011;73663;51.298;5.802;2023-12-07T09:09:44;28.55;;;11.13;;
83682;SDS011;73663;51.298;5.802;2023-12-07T09:14:47;33.38;;;11.18;;
83682;SDS011;73663;51.298;5.802;2023-12-07T09:19:48;34.10;;;12.75;;
83682;SDS011;73663;51.298;5.802;2023-12-07T09:24:48;29.83;;;11.95;;
83682;SDS011;73663;51.298;5.802;2023-12-07T09:29:49;31.00;;;13.02;;
83682;SDS011;73663;51.298;5.802;2023-12-07T09:34:51;32.20;;;11.88;;
83682;SDS011;73663;51.298;5.802;2023-12-07T09:39:53;30.02;;;11.57;;
83682;SDS011;73663;51.298;5.802;2023-12-07T09:44:54;32.38;;;11.85;;
83682;SDS011;73663;51.298;5.802;2023-12-07T09:49:54;26.25;;;10.50;;
83682;SDS011;73663;51.298;5.802;2023-12-07T09:54:55;34.30;;;12.52;;
83682;SDS011;73663;51.298;5.802;2023-12-07T09:59:57;29.10;;;11.75;;
83682;SDS011;73663;51.298;5.802;2023-12-07T10:05:08;30.83;;;12.02;;
83682;SDS011;73663;51.298;5.802;2023-12-07T10:10:19;28.42;;;11.77;;
83682;SDS011;73663;51.298;5.802;2023-12-07T10:15:20;26.75;;;10.82;;
83682;SDS011;73663;51.298;5.802;2023-12-07T10:20:23;23.00;;;10.20;;
83682;SDS011;73663;51.298;5.802;2023-12-07T10:25:28;18.70;;;9.52;;
83682;SDS011;73663;51.298;5.802;2023-12-07T10:30:32;19.02;;;8.95;;
83682;SDS011;73663;51.298;5.802;2023-12-07T10:35:37;16.55;;;7.43;;
83682;SDS011;73663;51.298;5.802;2023-12-07T10:40:41;17.02;;;8.05;;
83682;SDS011;73663;51.298;5.802;2023-12-07T10:45:42;15.57;;;6.65;;
83682;SDS011;73663;51.298;5.802;2023-12-07T10:50:45;14.60;;;7.13;;
83682;SDS011;73663;51.298;5.802;2023-12-07T10:55:56;14.55;;;7.20;;
83682;SDS011;73663;51.298;5.802;2023-12-07T11:01:00;16.42;;;8.65;;
83682;SDS011;73663;51.298;5.802;2023-12-07T11:06:02;13.13;;;7.15;;
83682;SDS011;73663;51.298;5.802;2023-12-07T11:16:16;23.75;;;10.82;;
83682;SDS011;73663;51.298;5.802;2023-12-07T11:21:17;26.95;;;12.77;;
83682;SDS011;73663;51.298;5.802;2023-12-07T11:26:23;29.73;;;13.52;;
83682;SDS011;73663;51.298;5.802;2023-12-07T11:31:25;29.73;;;14.77;;
83682;SDS011;73663;51.298;5.802;2023-12-07T11:36:26;28.70;;;14.73;;
83682;SDS011;73663;51.298;5.802;2023-12-07T11:41:29;27.88;;;14.35;;
83682;SDS011;73663;51.298;5.802;2023-12-07T11:46:33;27.02;;;13.07;;
83682;SDS011;73663;51.298;5.802;2023-12-07T11:51:35;23.60;;;12.95;;
83682;SDS011;73663;51.298;5.802;2023-12-07T11:56:35;23.15;;;12.50;;
83682;SDS011;73663;51.298;5.802;2023-12-07T12:01:36;22.42;;;11.93;;
83682;SDS011;73663;51.298;5.802;2023-12-07T12:06:36;23.85;;;11.55;;
83682;SDS011;73663;51.298;5.802;2023-12-07T12:11:37;21.35;;;11.52;;
83682;SDS011;73663;51.298;5.802;2023-12-07T12:16:37;17.40;;;9.63;;
83682;SDS011;73663;51.298;5.802;2023-12-07T12:21:38;18.10;;;9.10;;
83682;SDS011;73663;51.298;5.802;2023-12-07T12:26:39;15.55;;;8.55;;
83682;SDS011;73663;51.298;5.802;2023-12-07T12:36:43;14.43;;;7.80;;
83682;SDS011;73663;51.298;5.802;2023-12-07T12:41:43;14.18;;;7.82;;
83682;SDS011;73663;51.298;5.802;2023-12-07T12:46:44;13.30;;;7.68;;
83682;SDS011;73663;51.298;5.802;2023-12-07T12:51:45;15.45;;;8.48;;
83682;SDS011;73663;51.298;5.802;2023-12-07T12:56:48;14.52;;;8.57;;
83682;SDS011;73663;51.298;5.802;2023-12-07T13:01:50;14.73;;;8.48;;
83682;SDS011;73663;51.298;5.802;2023-12-07T13:06:50;24.83;;;9.95;;
83682;SDS011;73663;51.298;5.802;2023-12-07T13:11:51;15.60;;;9.35;;
83682;SDS011;73663;51.298;5.802;2023-12-07T13:16:51;17.10;;;8.98;;
83682;SDS011;73663;51.298;5.802;2023-12-07T13:21:52;14.27;;;7.80;;
83682;SDS011;73663;51.298;5.802;2023-12-07T13:26:52;13.73;;;7.18;;
83682;SDS011;73663;51.298;5.802;2023-12-07T13:31:53;13.07;;;7.22;;
83682;SDS011;73663;51.298;5.802;2023-12-07T13:36:54;11.27;;;6.97;;
83682;SDS011;73663;51.298;5.802;2023-12-07T13:41:54;12.40;;;6.35;;
83682;SDS011;73663;51.298;5.802;2023-12-07T13:46:55;10.77;;;5.50;;
83682;SDS011;73663;51.298;5.802;2023-12-07T13:51:56;13.27;;;6.13;;
83682;SDS011;73663;51.298;5.802;2023-12-07T13:56:57;11.98;;;6.38;;
83682;SDS011;73663;51.298;5.802;2023-12-07T14:01:57;15.02;;;6.20;;
83682;SDS011;73663;51.298;5.802;2023-12-07T14:07:08;12.63;;;6.10;;
83682;SDS011;73663;51.298;5.802;2023-12-07T14:12:23;13.00;;;5.93;;
83682;SDS011;73663;51.298;5.802;2023-12-07T14:17:24;14.48;;;7.18;;
83682;SDS011;73663;51.298;5.802;2023-12-07T14:22:24;12.68;;;6.55;;
83682;SDS011;73663;51.298;5.802;2023-12-07T14:27:25;13.23;;;6.18;;
83682;SDS011;73663;51.298;5.802;2023-12-07T14:32:25;12.15;;;5.72;;
83682;SDS011;73663;51.298;5.802;2023-12-07T14:37:26;11.27;;;5.93;;
83682;SDS011;73663;51.298;5.802;2023-12-07T14:42:27;14.23;;;6.35;;
83682;SDS011;73663;51.298;5.802;2023-12-07T14:47:27;13.52;;;5.95;;
83682;SDS011;73663;51.298;5.802;2023-12-07T14:52:28;12.45;;;5.40;;
83682;SDS011;73663;51.298;5.802;2023-12-07T14:57:29;11.25;;;5.93;;
83682;SDS011;73663;51.298;5.802;2023-12-07T15:02:29;12.30;;;6.07;;
83682;SDS011;73663;51.298;5.802;2023-12-07T15:07:30;11.60;;;6.22;;
83682;SDS011;73663;51.298;5.802;2023-12-07T15:12:30;13.30;;;6.35;;
83682;SDS011;73663;51.298;5.802;2023-12-07T15:17:31;12.48;;;6.13;;
83682;SDS011;73663;51.298;5.802;2023-12-07T15:22:32;13.32;;;6.07;;
83682;SDS011;73663;51.298;5.802;2023-12-07T15:27:32;14.68;;;6.40;;
83682;SDS011;73663;51.298;5.802;2023-12-07T15:32:33;12.57;;;5.28;;
83682;SDS011;73663;51.298;5.802;2023-12-07T15:37:33;14.02;;;5.78;;
83682;SDS011;73663;51.298;5.802;2023-12-07T15:42:34;13.82;;;6.35;;
83682;SDS011;73663;51.298;5.802;2023-12-07T15:47:35;13.60;;;5.57;;
83682;SDS011;73663;51.298;5.802;2023-12-07T15:52:35;13.55;;;6.13;;
83682;SDS011;73663;51.298;5.802;2023-12-07T15:57:36;12.52;;;6.10;;
83682;SDS011;73663;51.298;5.802;2023-12-07T16:02:36;13.63;;;6.93;;
83682;SDS011;73663;51.298;5.802;2023-12-07T16:07:37;12.95;;;6.88;;
83682;SDS011;73663;51.298;5.802;2023-12-07T16:12:39;13.95;;;6.50;;
83682;SDS011;73663;51.298;5.802;2023-12-07T16:17:40;19.27;;;7.78;;
83682;SDS011;73663;51.298;5.802;2023-12-07T16:22:40;17.42;;;7.50;;
83682;SDS011;73663;51.298;5.802;2023-12-07T16:27:41;15.13;;;7.35;;
83682;SDS011;73663;51.298;5.802;2023-12-07T16:32:41;12.95;;;6.38;;
83682;SDS011;73663;51.298;5.802;2023-12-07T16:37:46;15.45;;;6.75;;
83682;SDS011;73663;51.298;5.802;2023-12-07T16:42:46;16.98;;;7.88;;
83682;SDS011;73663;51.298;5.802;2023-12-07T16:47:48;18.85;;;8.10;;
83682;SDS011;73663;51.298;5.802;2023-12-07T16:52:49;16.00;;;7.18;;
83682;SDS011;73663;51.298;5.802;2023-12-07T16:57:50;14.30;;;6.05;;
83682;SDS011;73663;51.298;5.802;2023-12-07T17:02:51;14.27;;;6.13;;
83682;SDS011;73663;51.298;5.802;2023-12-07T17:07:51;16.20;;;7.53;;
83682;SDS011;73663;51.298;5.802;2023-12-07T17:12:52;17.92;;;6.60;;
83682;SDS011;73663;51.298;5.802;2023-12-07T17:17:52;14.63;;;7.40;;
83682;SDS011;73663;51.298;5.802;2023-12-07T17:22:53;14.20;;;6.72;;
83682;SDS011;73663;51.298;5.802;2023-12-07T17:27:53;12.55;;;6.55;;
83682;SDS011;73663;51.298;5.802;2023-12-07T17:33:01;12.00;;;5.82;;
83682;SDS011;73663;51.298;5.802;2023-12-07T17:38:01;14.82;;;6.35;;
83682;SDS011;73663;51.298;5.802;2023-12-07T17:43:02;13.43;;;5.65;;
83682;SDS011;73663;51.298;5.802;2023-12-07T17:48:02;11.73;;;6.18;;
83682;SDS011;73663;51.298;5.802;2023-12-07T17:53:11;14.43;;;6.65;;
83682;SDS011;73663;51.298;5.802;2023-12-07T17:58:12;16.08;;;6.18;;
83682;SDS011;73663;51.298;5.802;2023-12-07T18:03:12;12.70;;;6.53;;
83682;SDS011;73663;51.298;5.802;2023-12-07T18:08:13;13.18;;;6.43;;
83682;SDS011;73663;51.298;5.802;2023-12-07T18:13:13;11.35;;;5.85;;
83682;SDS011;73663;51.298;5.802;2023-12-07T18:18:14;12.20;;;6.45;;
83682;SDS011;73663;51.298;5.802;2023-12-07T18:23:14;12.02;;;5.60;;
83682;SDS011;73663;51.298;5.802;2023-12-07T18:28:15;10.77;;;5.30;;
83682;SDS011;73663;51.298;5.802;2023-12-07T18:33:16;10.10;;;4.88;;
83682;SDS011;73663;51.298;5.802;2023-12-07T18:38:16;9.43;;;5.40;;
83682;SDS011;73663;51.298;5.802;2023-12-07T18:43:17;12.30;;;5.80;;
83682;SDS011;73663;51.298;5.802;2023-12-07T18:48:18;11.27;;;5.85;;
83682;SDS011;73663;51.298;5.802;2023-12-07T18:53:21;11.85;;;5.95;;
83682;SDS011;73663;51.298;5.802;2023-12-07T18:58:22;10.48;;;5.43;;
83682;SDS011;73663;51.298;5.802;2023-12-07T19:03:25;11.73;;;6.35;;
83682;SDS011;73663;51.298;5.802;2023-12-07T19:08:26;10.20;;;5.93;;
83682;SDS011;73663;51.298;5.802;2023-12-07T19:13:26;13.40;;;6.18;;
83682;SDS011;73663;51.298;5.802;2023-12-07T19:18:27;11.40;;;5.20;;
83682;SDS011;73663;51.298;5.802;2023-12-07T19:23:34;11.90;;;5.60;;
83682;SDS011;73663;51.298;5.802;2023-12-07T19:28:34;12.35;;;5.43;;
83682;SDS011;73663;51.298;5.802;2023-12-07T19:33:35;10.07;;;5.60;;
83682;SDS011;73663;51.298;5.802;2023-12-07T19:38:36;10.98;;;5.50;;
83682;SDS011;73663;51.298;5.802;2023-12-07T19:43:37;10.73;;;5.53;;
83682;SDS011;73663;51.298;5.802;2023-12-07T19:48:37;11.50;;;5.78;;
83682;SDS011;73663;51.298;5.802;2023-12-07T19:53:38;11.68;;;5.13;;
83682;SDS011;73663;51.298;5.802;2023-12-07T19:58:38;11.23;;;5.93;;
83682;SDS011;73663;51.298;5.802;2023-12-07T20:03:39;12.48;;;5.15;;
83682;SDS011;73663;51.298;5.802;2023-12-07T20:08:39;12.40;;;5.40;;
83682;SDS011;73663;51.298;5.802;2023-12-07T20:13:40;10.45;;;5.78;;
83682;SDS011;73663;51.298;5.802;2023-12-07T20:18:41;10.00;;;5.72;;
83682;SDS011;73663;51.298;5.802;2023-12-07T20:23:41;11.70;;;5.03;;
83682;SDS011;73663;51.298;5.802;2023-12-07T20:28:43;9.80;;;5.57;;
83682;SDS011;73663;51.298;5.802;2023-12-07T20:33:44;10.65;;;5.05;;
83682;SDS011;73663;51.298;5.802;2023-12-07T20:38:45;12.88;;;5.47;;
83682;SDS011;73663;51.298;5.802;2023-12-07T20:43:45;13.57;;;6.03;;
83682;SDS011;73663;51.298;5.802;2023-12-07T20:48:46;12.63;;;5.70;;
83682;SDS011;73663;51.298;5.802;2023-12-07T20:53:46;8.88;;;4.97;;
83682;SDS011;73663;51.298;5.802;2023-12-07T20:58:47;11.70;;;5.25;;
83682;SDS011;73663;51.298;5.802;2023-12-07T21:03:48;10.57;;;5.30;;
83682;SDS011;73663;51.298;5.802;2023-12-07T21:08:49;10.32;;;5.07;;
83682;SDS011;73663;51.298;5.802;2023-12-07T21:13:49;11.63;;;5.63;;
83682;SDS011;73663;51.298;5.802;2023-12-07T21:18:50;14.15;;;5.95;;
83682;SDS011;73663;51.298;5.802;2023-12-07T21:23:50;14.45;;;5.97;;
83682;SDS011;73663;51.298;5.802;2023-12-07T21:28:51;13.95;;;6.40;;
83682;SDS011;73663;51.298;5.802;2023-12-07T21:33:51;12.73;;;6.15;;
83682;SDS011;73663;51.298;5.802;2023-12-07T21:38:52;13.63;;;5.78;;
83682;SDS011;73663;51.298;5.802;2023-12-07T21:43:52;12.55;;;6.18;;
83682;SDS011;73663;51.298;5.802;2023-12-07T21:48:53;14.20;;;7.45;;
83682;SDS011;73663;51.298;5.802;2023-12-07T21:53:53;11.98;;;6.38;;
83682;SDS011;73663;51.298;5.802;2023-12-07T21:58:54;13.07;;;6.07;;
83682;SDS011;73663;51.298;5.802;2023-12-07T22:03:54;15.27;;;6.10;;
83682;SDS011;73663;51.298;5.802;2023-12-07T22:08:55;12.13;;;6.20;;
83682;SDS011;73663;51.298;5.802;2023-12-07T22:13:56;14.90;;;6.90;;
83682;SDS011;73663;51.298;5.802;2023-12-07T22:18:56;14.18;;;7.13;;
83682;SDS011;73663;51.298;5.802;2023-12-07T22:23:57;14.70;;;6.80;;
83682;SDS011;73663;51.298;5.802;2023-12-07T22:28:58;9.73;;;4.70;;
83682;SDS011;73663;51.298;5.802;2023-12-07T22:33:58;16.52;;;7.03;;
83682;SDS011;73663;51.298;5.802;2023-12-07T22:38:59;16.52;;;7.03;;
83682;SDS011;73663;51.298;5.802;2023-12-07T22:43:59;14.30;;;6.50;;
83682;SDS011;73663;51.298;5.802;2023-12-07T22:49:00;17.38;;;7.68;;
83682;SDS011;73663;51.298;5.802;2023-12-07T22:54:00;10.30;;;4.97;;
83682;SDS011;73663;51.298;5.802;2023-12-07T22:59:01;12.82;;;5.90;;
83682;SDS011;73663;51.298;5.802;2023-12-07T23:04:01;15.93;;;7.45;;
83682;SDS011;73663;51.298;5.802;2023-12-07T23:09:08;17.20;;;7.22;;
83682;SDS011;73663;51.298;5.802;2023-12-07T23:14:10;16.77;;;6.82;;
83682;SDS011;73663;51.298;5.802;2023-12-07T23:19:10;18.02;;;8.57;;
83682;SDS011;73663;51.298;5.802;2023-12-07T23:24:17;16.88;;;8.15;;
83682;SDS011;73663;51.298;5.802;2023-12-07T23:29:24;16.63;;;7.20;;
83682;SDS011;73663;51.298;5.802;2023-12-07T23:34:25;17.67;;;6.95;;
83682;SDS011;73663;51.298;5.802;2023-12-07T23:39:25;16.50;;;7.63;;
83682;SDS011;73663;51.298;5.802;2023-12-07T23:44:26;18.05;;;8.13;;
83682;SDS011;73663;51.298;5.802;2023-12-07T23:49:40;15.35;;;8.05;;
83682;SDS011;73663;51.298;5.802;2023-12-07T23:54:41;20.33;;;8.75;;
83682;SDS011;73663;51.298;5.802;2023-12-07T23:59:41;18.17;;;9.00;;
